createdAt,value
2023-07-24T00:00:50.541Z,17.73
2023-07-24T00:03:31.760Z,17.70
2023-07-24T00:06:00.650Z,17.65
2023-07-24T00:08:28.683Z,17.62
2023-07-24T00:10:56.662Z,17.60
2023-07-24T00:13:24.749Z,17.59
2023-07-24T00:15:52.565Z,17.57
2023-07-24T00:18:20.568Z,17.55
2023-07-24T00:20:48.578Z,17.55
2023-07-24T00:23:16.477Z,17.56
2023-07-24T00:25:44.302Z,17.56
2023-07-24T00:28:12.131Z,17.56
2023-07-24T00:30:40.249Z,17.55
2023-07-24T00:33:08.102Z,17.57
2023-07-24T00:35:36.043Z,17.60
2023-07-24T00:38:04.218Z,17.64
2023-07-24T00:40:32.127Z,17.69
2023-07-24T00:43:00.366Z,17.71
2023-07-24T00:45:30.073Z,17.73
2023-07-24T00:47:58.222Z,17.72
2023-07-24T00:50:26.416Z,17.70
2023-07-24T00:52:55.108Z,17.68
2023-07-24T00:55:23.052Z,17.65
2023-07-24T00:57:51.081Z,17.63
2023-07-24T01:00:19.215Z,17.61
2023-07-24T01:02:49.252Z,17.59
2023-07-24T01:05:17.809Z,17.57
2023-07-24T01:07:45.855Z,17.55
2023-07-24T01:10:13.709Z,17.53
2023-07-24T01:12:41.446Z,17.49
2023-07-24T01:15:26.393Z,17.41
2023-07-24T01:18:01.816Z,17.33
2023-07-24T01:20:30.824Z,17.26
2023-07-24T01:23:16.145Z,17.22
2023-07-24T01:26:00.556Z,17.17
2023-07-24T01:28:28.633Z,17.12
2023-07-24T01:30:57.531Z,17.10
2023-07-24T01:33:26.215Z,17.09
2023-07-24T01:35:58.788Z,17.07
2023-07-24T01:38:27.177Z,17.03
2023-07-24T01:40:55.741Z,16.98
2023-07-24T01:43:24.333Z,16.93
2023-07-24T01:45:52.347Z,16.90
2023-07-24T01:48:20.190Z,16.86
2023-07-24T01:50:49.163Z,16.82
2023-07-24T01:53:17.250Z,16.78
2023-07-24T01:55:45.207Z,16.75
2023-07-24T01:58:13.272Z,16.70
2023-07-24T02:00:41.247Z,16.67
2023-07-24T02:03:09.079Z,16.64
2023-07-24T02:05:37.202Z,16.60
2023-07-24T02:08:05.669Z,16.56
2023-07-24T02:10:33.807Z,16.54
2023-07-24T02:13:01.802Z,16.53
2023-07-24T02:15:29.714Z,16.53
2023-07-24T02:17:57.673Z,16.51
2023-07-24T02:20:25.661Z,16.50
2023-07-24T02:22:53.685Z,16.49
2023-07-24T02:25:21.544Z,16.48
2023-07-24T02:27:49.425Z,16.48
2023-07-24T02:30:17.387Z,16.48
2023-07-24T02:32:45.204Z,16.48
2023-07-24T02:35:13.112Z,16.48
2023-07-24T02:37:40.975Z,16.47
2023-07-24T02:40:13.280Z,16.48
2023-07-24T02:42:41.228Z,16.49
2023-07-24T02:45:12.296Z,16.51
2023-07-24T02:47:40.332Z,16.50
2023-07-24T02:50:08.642Z,16.49
2023-07-24T02:52:36.533Z,16.52
2023-07-24T02:55:04.961Z,16.56
2023-07-24T02:57:33.244Z,16.59
2023-07-24T03:00:01.203Z,16.62
2023-07-24T03:02:29.404Z,16.65
2023-07-24T03:04:57.408Z,16.67
2023-07-24T03:07:25.237Z,16.68
2023-07-24T03:09:53.048Z,16.67
2023-07-24T03:12:20.828Z,16.67
2023-07-24T03:14:49.132Z,16.69
2023-07-24T03:17:16.991Z,16.70
2023-07-24T03:19:44.867Z,16.70
2023-07-24T03:22:12.755Z,16.70
2023-07-24T03:24:40.809Z,16.71
2023-07-24T03:27:08.876Z,16.68
2023-07-24T03:29:38.463Z,16.68
2023-07-24T03:32:06.766Z,16.67
2023-07-24T03:34:34.826Z,16.67
2023-07-24T03:37:03.305Z,16.67
2023-07-24T03:39:32.614Z,16.67
2023-07-24T03:42:00.474Z,16.66
2023-07-24T03:44:28.457Z,16.66
2023-07-24T03:46:56.494Z,16.66
2023-07-24T03:49:24.605Z,16.66
2023-07-24T03:51:52.562Z,16.67
2023-07-24T03:54:20.424Z,16.67
2023-07-24T03:56:48.292Z,16.66
2023-07-24T03:59:16.372Z,16.66
2023-07-24T04:01:44.439Z,16.66
2023-07-24T04:04:12.269Z,16.66
2023-07-24T04:06:40.245Z,16.67
2023-07-24T04:09:08.103Z,16.66
2023-07-24T04:11:39.437Z,16.66
2023-07-24T04:14:07.585Z,16.66
2023-07-24T04:16:35.991Z,16.68
2023-07-24T04:19:04.422Z,16.71
2023-07-24T04:21:32.510Z,16.74
2023-07-24T04:24:00.581Z,16.78
2023-07-24T04:26:28.808Z,16.81
2023-07-24T04:28:57.039Z,16.83
2023-07-24T04:31:25.122Z,16.86
2023-07-24T04:33:53.135Z,16.89
2023-07-24T04:36:20.921Z,16.92
2023-07-24T04:38:48.766Z,16.95
2023-07-24T04:41:17.165Z,17.00
2023-07-24T04:43:45.154Z,17.05
2023-07-24T04:46:13.002Z,17.10
2023-07-24T04:48:41.184Z,17.16
2023-07-24T04:51:09.066Z,17.22
2023-07-24T04:53:37.007Z,17.28
2023-07-24T04:56:05.031Z,17.33
2023-07-24T04:58:33.063Z,17.38
2023-07-24T05:01:03.821Z,17.43
2023-07-24T05:03:32.319Z,17.50
2023-07-24T05:06:00.234Z,17.57
2023-07-24T05:08:28.033Z,17.63
2023-07-24T05:10:59.936Z,17.70
2023-07-24T05:13:28.151Z,17.76
2023-07-24T05:15:55.922Z,17.83
2023-07-24T05:18:23.764Z,17.87
2023-07-24T05:20:52.726Z,17.94
2023-07-24T05:23:20.715Z,18.01
2023-07-24T05:25:48.698Z,18.08
2023-07-24T05:28:16.547Z,18.15
2023-07-24T05:30:44.492Z,18.23
2023-07-24T05:33:12.718Z,18.32
2023-07-24T05:35:40.704Z,18.42
2023-07-24T05:38:08.750Z,18.53
2023-07-24T05:40:36.830Z,18.63
2023-07-24T05:43:05.185Z,18.74
2023-07-24T05:45:33.069Z,18.84
2023-07-24T05:48:01.087Z,18.95
2023-07-24T05:50:29.012Z,19.05
2023-07-24T05:52:56.910Z,19.15
2023-07-24T05:55:24.998Z,19.26
2023-07-24T05:57:53.136Z,19.35
2023-07-24T06:00:20.964Z,19.45
2023-07-24T06:02:49.053Z,19.54
2023-07-24T06:05:17.656Z,19.62
2023-07-24T06:07:45.636Z,19.69
2023-07-24T06:10:13.842Z,19.79
2023-07-24T06:12:41.763Z,19.86
2023-07-24T06:15:10.213Z,19.91
2023-07-24T06:17:38.167Z,19.95
2023-07-24T06:20:07.427Z,20.01
2023-07-24T06:22:35.236Z,20.06
2023-07-24T06:25:03.045Z,20.10
2023-07-24T06:27:31.074Z,20.14
2023-07-24T06:30:13.068Z,20.18
2023-07-24T06:32:43.684Z,20.22
2023-07-24T06:35:11.924Z,20.26
2023-07-24T06:37:39.891Z,20.30
2023-07-24T06:40:08.403Z,20.33
2023-07-24T06:42:37.465Z,20.37
2023-07-24T06:45:08.418Z,20.42
2023-07-24T06:47:37.038Z,20.47
2023-07-24T06:50:06.010Z,20.52
2023-07-24T06:52:34.310Z,20.57
2023-07-24T06:55:02.362Z,20.62
2023-07-24T06:57:30.261Z,20.67
2023-07-24T06:59:58.286Z,20.73
2023-07-24T07:02:26.590Z,20.79
2023-07-24T07:04:54.665Z,20.85
2023-07-24T07:07:22.602Z,20.90
2023-07-24T07:09:50.664Z,20.96
2023-07-24T07:12:19.946Z,21.01
2023-07-24T07:14:49.990Z,21.07
2023-07-24T07:17:18.076Z,21.13
2023-07-24T07:19:45.952Z,21.17
2023-07-24T07:22:13.908Z,21.21
2023-07-24T07:24:42.013Z,21.27
2023-07-24T07:27:10.094Z,21.32
2023-07-24T07:29:38.218Z,21.37
2023-07-24T07:32:06.432Z,21.42
2023-07-24T07:34:35.961Z,21.46
2023-07-24T07:37:03.899Z,21.50
2023-07-24T07:39:31.702Z,21.55
2023-07-24T07:42:12.281Z,21.59
2023-07-24T07:44:44.083Z,21.64
2023-07-24T07:47:12.275Z,21.71
2023-07-24T07:49:44.214Z,21.78
2023-07-24T07:52:12.353Z,21.86
2023-07-24T07:54:40.288Z,21.92
2023-07-24T07:57:08.122Z,21.98
2023-07-24T07:59:36.463Z,22.05
2023-07-24T08:02:04.618Z,22.11
2023-07-24T08:04:32.924Z,22.19
2023-07-24T08:07:01.015Z,22.25
2023-07-24T08:09:29.472Z,22.31
2023-07-24T08:11:57.447Z,22.37
2023-07-24T08:14:25.521Z,22.43
2023-07-24T08:16:54.708Z,22.50
2023-07-24T08:19:22.904Z,22.55
2023-07-24T08:21:50.733Z,22.61
2023-07-24T08:24:18.627Z,22.69
2023-07-24T08:26:46.690Z,22.77
2023-07-24T08:29:14.761Z,22.85
2023-07-24T08:31:42.757Z,22.92
2023-07-24T08:34:11.010Z,22.99
2023-07-24T08:36:38.976Z,23.05
2023-07-24T08:39:07.256Z,23.12
2023-07-24T08:41:36.447Z,23.19
2023-07-24T08:44:09.026Z,23.25
2023-07-24T08:46:38.598Z,23.32
2023-07-24T08:49:07.272Z,23.41
2023-07-24T08:51:36.541Z,23.49
2023-07-24T08:54:05.629Z,23.57
2023-07-24T08:56:33.594Z,23.66
2023-07-24T08:59:01.664Z,23.75
2023-07-24T09:01:29.489Z,23.85
2023-07-24T09:03:57.563Z,23.96
2023-07-24T09:06:27.587Z,24.05
2023-07-24T09:08:56.110Z,24.14
2023-07-24T09:11:24.180Z,24.22
2023-07-24T09:13:55.399Z,24.30
2023-07-24T09:16:25.309Z,24.39
2023-07-24T09:21:29.767Z,24.57
2023-07-24T09:23:58.745Z,24.66
2023-07-24T09:26:27.007Z,24.76
2023-07-24T09:28:55.625Z,24.85
2023-07-24T09:31:34.760Z,24.92
2023-07-24T09:34:03.570Z,25.02
2023-07-24T09:36:40.928Z,25.10
2023-07-24T09:39:11.971Z,25.19
2023-07-24T09:41:41.522Z,25.28
2023-07-24T09:44:13.072Z,25.32
2023-07-24T09:49:13.523Z,25.46
2023-07-24T09:51:45.846Z,25.55
2023-07-24T09:54:21.482Z,25.63
2023-07-24T09:56:55.577Z,25.70
2023-07-24T09:59:31.873Z,25.79
2023-07-24T10:02:00.225Z,25.89
2023-07-24T10:04:28.897Z,25.98
2023-07-24T10:06:57.256Z,26.05
2023-07-24T10:09:28.298Z,26.12
2023-07-24T10:11:58.944Z,26.18
2023-07-24T10:14:26.975Z,26.25
2023-07-24T10:16:57.413Z,26.31
2023-07-24T10:19:25.464Z,26.37
2023-07-24T10:21:53.440Z,26.44
2023-07-24T10:24:40.155Z,26.52
2023-07-24T10:27:09.897Z,26.59
2023-07-24T10:29:38.300Z,26.68
2023-07-24T10:32:18.651Z,26.77
2023-07-24T10:34:47.077Z,26.83
2023-07-24T10:37:15.141Z,26.90
2023-07-24T10:39:43.112Z,26.99
2023-07-24T10:42:12.021Z,27.06
2023-07-24T10:44:40.240Z,27.14
2023-07-24T10:47:08.258Z,27.21
2023-07-24T10:49:36.735Z,27.29
2023-07-24T10:52:05.027Z,27.38
2023-07-24T10:54:33.085Z,27.43
2023-07-24T10:57:04.241Z,27.48
2023-07-24T10:59:38.873Z,27.56
2023-07-24T11:02:08.101Z,27.64
2023-07-24T11:04:36.370Z,27.73
2023-07-24T11:07:04.573Z,27.81
2023-07-24T11:09:41.392Z,27.88
2023-07-24T11:12:12.757Z,27.91
2023-07-24T11:14:47.351Z,27.97
2023-07-24T11:17:15.525Z,27.97
2023-07-24T11:19:43.534Z,27.90
2023-07-24T11:22:11.569Z,27.85
2023-07-24T11:24:47.131Z,27.91
2023-07-24T11:27:16.307Z,27.95
2023-07-24T11:29:51.169Z,28.02
2023-07-24T11:32:22.391Z,28.11
2023-07-24T11:34:51.405Z,28.21
2023-07-24T11:37:20.085Z,28.32
2023-07-24T11:39:58.043Z,28.42
2023-07-24T11:42:28.858Z,28.53
2023-07-24T11:44:56.892Z,28.61
2023-07-24T11:47:24.813Z,28.69
2023-07-24T11:50:00.085Z,28.78
2023-07-24T11:52:39.311Z,28.88
2023-07-24T11:55:07.710Z,28.93
2023-07-24T11:57:35.667Z,28.95
2023-07-24T12:00:04.906Z,28.99
2023-07-24T12:02:35.980Z,29.02
2023-07-24T12:05:05.774Z,29.03
2023-07-24T12:07:35.026Z,29.07
2023-07-24T12:10:04.088Z,29.06
2023-07-24T12:12:38.768Z,29.08
2023-07-24T12:15:07.220Z,29.13
2023-07-24T12:17:35.447Z,29.16
2023-07-24T12:20:05.438Z,29.19
2023-07-24T12:22:34.162Z,29.22
2023-07-24T12:25:02.854Z,29.25
2023-07-24T12:27:31.022Z,29.29
2023-07-24T12:29:59.099Z,29.34
2023-07-24T12:32:27.187Z,29.38
2023-07-24T12:34:55.302Z,29.44
2023-07-24T12:37:23.446Z,29.51
2023-07-24T12:39:51.319Z,29.60
2023-07-24T12:42:19.201Z,29.67
2023-07-24T12:44:47.075Z,29.77
2023-07-24T12:47:15.142Z,29.87
2023-07-24T12:49:42.995Z,29.96
2023-07-24T12:52:11.711Z,30.03
2023-07-24T12:54:59.103Z,30.09
2023-07-24T12:57:27.828Z,30.07
2023-07-24T12:59:55.938Z,30.08
2023-07-24T13:02:23.992Z,30.08
2023-07-24T13:04:52.032Z,30.06
2023-07-24T13:07:19.936Z,29.99
2023-07-24T13:09:47.883Z,29.99
2023-07-24T13:12:15.716Z,30.04
2023-07-24T13:14:43.692Z,30.10
2023-07-24T13:17:11.746Z,30.17
2023-07-24T13:19:39.569Z,30.24
2023-07-24T13:22:07.671Z,30.30
2023-07-24T13:24:35.504Z,30.30
2023-07-24T13:27:03.517Z,30.25
2023-07-24T13:29:32.102Z,30.20
2023-07-24T13:32:00.073Z,30.18
2023-07-24T13:34:27.946Z,30.23
2023-07-24T13:36:56.031Z,30.31
2023-07-24T13:39:23.981Z,30.42
2023-07-24T13:41:51.950Z,30.48
2023-07-24T13:44:19.886Z,30.53
2023-07-24T13:46:47.932Z,30.61
2023-07-24T13:49:15.825Z,30.71
2023-07-24T13:51:43.948Z,30.79
2023-07-24T13:54:11.840Z,30.88
2023-07-24T13:56:39.810Z,30.93
2023-07-24T13:59:07.849Z,30.99
2023-07-24T14:01:36.190Z,31.08
2023-07-24T14:04:04.926Z,31.14
2023-07-24T14:06:32.963Z,31.17
2023-07-24T14:09:01.068Z,31.19
2023-07-24T14:11:30.677Z,31.18
2023-07-24T14:13:59.243Z,31.08
2023-07-24T14:16:27.262Z,31.01
2023-07-24T14:18:55.184Z,30.92
2023-07-24T14:21:23.055Z,30.87
2023-07-24T14:23:50.950Z,30.85
2023-07-24T14:26:19.117Z,30.89
2023-07-24T14:28:47.166Z,30.88
2023-07-24T14:31:15.040Z,30.88
2023-07-24T14:33:43.217Z,30.88
2023-07-24T14:36:11.126Z,30.91
2023-07-24T14:38:38.970Z,30.93
2023-07-24T14:41:07.132Z,30.96
2023-07-24T14:43:35.013Z,31.02
2023-07-24T14:46:02.886Z,31.06
2023-07-24T14:48:32.776Z,31.02
2023-07-24T14:51:02.371Z,30.98
2023-07-24T14:53:30.257Z,30.97
2023-07-24T14:55:58.443Z,30.98
2023-07-24T14:58:26.307Z,30.99
2023-07-24T15:00:54.231Z,30.99
2023-07-24T15:03:22.586Z,31.01
2023-07-24T15:05:50.708Z,31.02
2023-07-24T15:08:18.974Z,31.02
2023-07-24T15:10:46.804Z,31.02
2023-07-24T15:13:14.642Z,30.99
2023-07-24T15:15:42.814Z,30.97
2023-07-24T15:18:10.754Z,30.96
2023-07-24T15:20:39.023Z,30.92
2023-07-24T15:23:08.398Z,30.87
2023-07-24T15:25:38.079Z,30.85
2023-07-24T15:28:05.978Z,30.85
2023-07-24T15:30:34.186Z,30.84
2023-07-24T15:33:01.996Z,30.85
2023-07-24T15:35:30.016Z,30.86
2023-07-24T15:37:58.065Z,30.88
2023-07-24T15:40:26.103Z,30.89
2023-07-24T15:42:54.130Z,30.90
2023-07-24T15:45:22.024Z,30.89
2023-07-24T15:47:50.038Z,30.87
2023-07-24T15:50:17.976Z,30.82
2023-07-24T15:52:45.919Z,30.79
2023-07-24T15:55:13.868Z,30.72
2023-07-24T15:57:41.668Z,30.63
2023-07-24T16:00:10.324Z,30.51
2023-07-24T16:02:41.569Z,30.40
2023-07-24T16:05:17.962Z,30.29
2023-07-24T16:07:47.212Z,30.14
2023-07-24T16:10:15.705Z,30.03
2023-07-24T16:12:43.988Z,29.96
2023-07-24T16:15:12.230Z,29.91
2023-07-24T16:20:28.676Z,29.86
2023-07-24T16:22:56.870Z,29.83
2023-07-24T16:25:25.022Z,29.79
2023-07-24T16:27:52.880Z,29.75
2023-07-24T16:30:22.183Z,29.74
2023-07-24T16:32:50.875Z,29.73
2023-07-24T16:35:19.086Z,29.72
2023-07-24T16:37:48.888Z,29.69
2023-07-24T16:40:17.785Z,29.66
2023-07-24T16:42:46.677Z,29.61
2023-07-24T16:45:29.450Z,29.56
2023-07-24T16:48:03.653Z,29.50
2023-07-24T16:50:33.231Z,29.45
2023-07-24T16:53:01.266Z,29.38
2023-07-24T16:55:30.202Z,29.32
2023-07-24T16:57:58.865Z,29.24
2023-07-24T17:00:26.916Z,29.16
2023-07-24T17:02:54.849Z,29.07
2023-07-24T17:05:23.072Z,28.98
2023-07-24T17:07:50.980Z,28.89
2023-07-24T17:10:19.625Z,28.81
2023-07-24T17:12:47.593Z,28.72
2023-07-24T17:15:15.421Z,28.65
2023-07-24T17:17:44.372Z,28.56
2023-07-24T17:20:12.277Z,28.47
2023-07-24T17:22:40.097Z,28.38
2023-07-24T17:25:08.229Z,28.29
2023-07-24T17:27:38.257Z,28.22
2023-07-24T17:30:06.745Z,28.15
2023-07-24T17:32:34.741Z,28.06
2023-07-24T17:35:02.582Z,27.99
2023-07-24T17:40:05.718Z,27.88
2023-07-24T17:42:33.667Z,27.79
2023-07-24T17:45:01.643Z,27.72
2023-07-24T17:47:29.614Z,27.65
2023-07-24T17:50:06.281Z,27.57
2023-07-24T17:52:37.249Z,27.50
2023-07-24T17:55:06.496Z,27.40
2023-07-24T17:57:34.979Z,27.29
2023-07-24T18:00:04.576Z,27.21
2023-07-24T18:02:33.470Z,27.12
2023-07-24T18:05:02.068Z,27.04
2023-07-24T18:07:29.947Z,26.97
2023-07-24T18:09:58.048Z,26.90
2023-07-24T18:12:27.024Z,26.80
2023-07-24T18:14:54.977Z,26.72
2023-07-24T18:17:23.148Z,26.64
2023-07-24T18:19:51.232Z,26.57
2023-07-24T18:22:22.366Z,26.48
2023-07-24T18:24:50.601Z,26.40
2023-07-24T18:27:18.640Z,26.33
2023-07-24T18:29:46.690Z,26.25
2023-07-24T18:32:14.755Z,26.17
2023-07-24T18:34:42.767Z,26.09
2023-07-24T18:37:10.575Z,26.01
2023-07-24T18:39:38.512Z,25.93
2023-07-24T18:42:06.588Z,25.86
2023-07-24T18:44:36.665Z,25.79
2023-07-24T18:47:04.821Z,25.72
2023-07-24T18:49:32.874Z,25.64
2023-07-24T18:52:00.682Z,25.56
2023-07-24T18:54:28.956Z,25.47
2023-07-24T18:56:57.220Z,25.38
2023-07-24T18:59:25.134Z,25.31
2023-07-24T19:01:53.182Z,25.24
2023-07-24T19:04:21.067Z,25.16
2023-07-24T19:06:49.102Z,25.09
2023-07-24T19:09:17.277Z,25.03
2023-07-24T19:11:45.234Z,24.98
2023-07-24T19:14:13.521Z,24.92
2023-07-24T19:16:41.588Z,24.85
2023-07-24T19:19:09.561Z,24.78
2023-07-24T19:21:37.479Z,24.72
2023-07-24T19:24:05.767Z,24.67
2023-07-24T19:26:33.759Z,24.62
2023-07-24T19:29:01.665Z,24.57
2023-07-24T19:31:29.831Z,24.52
2023-07-24T19:33:58.090Z,24.45
2023-07-24T19:36:26.015Z,24.39
2023-07-24T19:38:54.163Z,24.33
2023-07-24T19:41:22.196Z,24.26
2023-07-24T19:43:49.998Z,24.21
2023-07-24T19:46:18.010Z,24.16
2023-07-24T19:48:46.232Z,24.10
2023-07-24T19:51:14.281Z,24.07
2023-07-24T19:53:42.105Z,24.04
2023-07-24T19:56:10.028Z,24.00
2023-07-24T19:58:38.401Z,23.94
2023-07-24T20:01:07.350Z,23.87
2023-07-24T20:03:35.489Z,23.81
2023-07-24T20:06:07.345Z,23.76
2023-07-24T20:08:36.310Z,23.71
2023-07-24T20:11:08.483Z,23.67
2023-07-24T20:13:39.137Z,23.62
2023-07-24T20:16:07.464Z,23.56
2023-07-24T20:18:35.700Z,23.52
2023-07-24T20:21:03.581Z,23.48
2023-07-24T20:23:31.810Z,23.45
2023-07-24T20:25:59.721Z,23.43
2023-07-24T20:28:28.070Z,23.40
2023-07-24T20:30:56.046Z,23.35
2023-07-24T20:33:24.954Z,23.28
2023-07-24T20:35:53.520Z,23.21
2023-07-24T20:38:26.090Z,23.15
2023-07-24T20:40:54.670Z,23.10
2023-07-24T20:43:22.730Z,23.06
2023-07-24T20:45:54.059Z,23.02
2023-07-24T20:48:23.183Z,22.97
2023-07-24T20:50:51.248Z,22.93
2023-07-24T20:53:19.242Z,22.90
2023-07-24T20:55:47.907Z,22.86
2023-07-24T20:58:15.873Z,22.82
2023-07-24T21:00:43.953Z,22.80
2023-07-24T21:03:12.018Z,22.77
2023-07-24T21:05:39.952Z,22.72
2023-07-24T21:08:07.969Z,22.68
2023-07-24T21:10:36.028Z,22.64
2023-07-24T21:13:03.993Z,22.61
2023-07-24T21:15:31.832Z,22.62
2023-07-24T21:17:59.834Z,22.60
2023-07-24T21:20:27.863Z,22.58
2023-07-24T21:22:56.187Z,22.55
2023-07-24T21:25:24.082Z,22.53
2023-07-24T21:27:52.017Z,22.50
2023-07-24T21:30:22.021Z,22.49
2023-07-24T21:32:50.341Z,22.48
2023-07-24T21:35:19.532Z,22.48
2023-07-24T21:37:47.488Z,22.49
2023-07-24T21:40:15.350Z,22.49
2023-07-24T21:42:43.121Z,22.49
2023-07-24T21:45:11.180Z,22.49
2023-07-24T21:47:39.094Z,22.49
2023-07-24T21:50:07.529Z,22.48
2023-07-24T21:52:35.414Z,22.47
2023-07-24T21:55:03.292Z,22.46
2023-07-24T21:57:31.136Z,22.41
2023-07-24T21:59:59.207Z,22.33
2023-07-24T22:02:27.269Z,22.27
2023-07-24T22:04:55.761Z,22.23
2023-07-24T22:07:23.735Z,22.17
2023-07-24T22:09:51.815Z,22.10
2023-07-24T22:12:19.886Z,22.06
2023-07-24T22:14:47.778Z,22.02
2023-07-24T22:17:15.709Z,21.97
2023-07-24T22:19:43.567Z,21.94
2023-07-24T22:22:11.460Z,21.91
2023-07-24T22:24:40.497Z,21.89
2023-07-24T22:27:08.510Z,21.87
2023-07-24T22:29:36.515Z,21.84
2023-07-24T22:32:04.766Z,21.80
2023-07-24T22:34:32.820Z,21.75
2023-07-24T22:37:00.651Z,21.69
2023-07-24T22:39:28.656Z,21.66
2023-07-24T22:41:56.874Z,21.64
2023-07-24T22:44:24.712Z,21.62
2023-07-24T22:46:52.787Z,21.61
2023-07-24T22:49:23.256Z,21.57
2023-07-24T22:51:51.297Z,21.53
2023-07-24T22:54:19.108Z,21.48
2023-07-24T22:56:47.135Z,21.44
2023-07-24T22:59:18.763Z,21.41
2023-07-24T23:01:47.045Z,21.37
2023-07-24T23:04:15.235Z,21.33
2023-07-24T23:06:43.229Z,21.29
2023-07-24T23:09:11.363Z,21.24
2023-07-24T23:11:39.160Z,21.21
2023-07-24T23:14:07.010Z,21.18
2023-07-24T23:16:35.024Z,21.17
2023-07-24T23:19:03.238Z,21.15
2023-07-24T23:21:31.707Z,21.12
2023-07-24T23:24:00.102Z,21.09
2023-07-24T23:26:28.056Z,21.07
2023-07-24T23:28:58.722Z,21.05
2023-07-24T23:31:26.795Z,21.04
2023-07-24T23:33:54.773Z,21.04
2023-07-24T23:36:22.885Z,21.05
2023-07-24T23:38:50.773Z,21.08
2023-07-24T23:41:18.574Z,21.10
2023-07-24T23:43:46.634Z,21.11
2023-07-24T23:46:15.323Z,21.12
2023-07-24T23:48:43.902Z,21.14
2023-07-24T23:51:19.221Z,21.16
2023-07-24T23:53:47.704Z,21.18
2023-07-24T23:56:15.820Z,21.20
2023-07-24T23:58:44.824Z,21.22
